Time;durP1;ratioP1;P1;durP2;ratioP2;P2;SDS_P1;SDS_P2;PMS_P1;PMS_P2;Temp;Humidity;BMP_temperature;BMP_pressure;BME280_temperature;BME280_humidity;BME280_pressure;Samples;Min_cycle;Max_cycle;Signal;HPM_P1;HPM_P2
2022/10/15 04:03:26;;;;;;;1.77;0.40;;;15.30;99.90;;;;;;6177596;23;20444;-84
2022/10/15 04:05:53;;;;;;;1.13;0.40;;;15.30;99.90;;;;;;4973847;28;20542;-64
2022/10/15 04:08:18;;;;;;;0.50;0.50;;;15.30;99.90;;;;;;4976332;28;20834;-65
2022/10/15 04:10:44;;;;;;;0.40;0.40;;;15.40;99.90;;;;;;4976214;28;20412;-64
2022/10/15 04:13:10;;;;;;;0.40;0.40;;;15.40;99.90;;;;;;4975136;28;20180;-64
2022/10/15 04:15:39;;;;;;;0.30;0.30;;;15.40;99.90;;;;;;4975314;28;20451;-65
2022/10/15 04:18:04;;;;;;;0.50;0.50;;;15.40;99.90;;;;;;4976010;28;20542;-65
2022/10/15 04:20:30;;;;;;;1.60;0.60;;;15.40;99.90;;;;;;4975980;28;20415;-65
2022/10/15 04:22:56;;;;;;;0.30;0.27;;;15.40;99.90;;;;;;4975512;28;20296;-64
2022/10/15 04:25:21;;;;;;;0.53;0.30;;;15.40;99.90;;;;;;4977537;28;20215;-64
2022/10/15 04:27:47;;;;;;;2.67;0.80;;;15.40;99.90;;;;;;4976086;28;20211;-64
2022/10/15 04:30:13;;;;;;;0.60;0.57;;;15.40;99.90;;;;;;4975867;28;20172;-64
2022/10/15 04:32:38;;;;;;;0.50;0.50;;;15.40;99.90;;;;;;4975568;28;20243;-64
2022/10/15 04:35:05;;;;;;;2.00;0.50;;;15.40;99.90;;;;;;4974192;28;20551;-64
2022/10/15 04:37:33;;;;;;;0.50;0.50;;;15.40;99.90;;;;;;4975575;28;20184;-65
2022/10/15 04:39:59;;;;;;;0.30;0.30;;;15.40;99.90;;;;;;4975756;28;20411;-63
2022/10/15 04:42:24;;;;;;;0.40;0.40;;;15.40;99.90;;;;;;4975544;28;20891;-64
2022/10/15 04:44:50;;;;;;;0.40;0.40;;;15.40;99.90;;;;;;4975556;28;20208;-64
2022/10/15 04:47:16;;;;;;;0.50;0.40;;;15.40;99.90;;;;;;4975634;28;20242;-64
2022/10/15 04:49:41;;;;;;;0.37;0.37;;;15.40;99.90;;;;;;4975219;28;20578;-65
2022/10/15 04:52:07;;;;;;;0.40;0.40;;;15.40;99.90;;;;;;4975645;28;20255;-64
2022/10/15 04:54:32;;;;;;;0.70;0.63;;;15.40;99.90;;;;;;4973782;28;20196;-64
2022/10/15 04:56:58;;;;;;;0.40;0.40;;;15.40;99.90;;;;;;4974863;28;20181;-64
2022/10/15 04:59:24;;;;;;;0.40;0.40;;;15.50;99.90;;;;;;4975268;28;20263;-64
2022/10/15 05:01:49;;;;;;;0.37;0.37;;;15.50;99.90;;;;;;4975209;28;20210;-65
2022/10/15 05:04:15;;;;;;;0.60;0.40;;;15.50;99.90;;;;;;4966763;28;20188;-62
2022/10/15 05:06:41;;;;;;;0.50;0.50;;;15.50;99.90;;;;;;4952375;28;20208;-61
2022/10/15 05:09:06;;;;;;;0.60;0.60;;;15.50;99.90;;;;;;4957849;28;20177;-64
2022/10/15 05:11:35;;;;;;;0.40;0.40;;;15.50;99.90;;;;;;4975236;28;20634;-65
2022/10/15 05:14:00;;;;;;;0.40;0.40;;;15.50;99.90;;;;;;4973124;28;20689;-64
2022/10/15 05:16:28;;;;;;;1.30;0.40;;;15.50;99.90;;;;;;4975138;28;20407;-65
2022/10/15 05:19:03;;;;;;;0.30;0.30;;;15.50;99.90;;;;;;4974602;28;20176;-63
2022/10/15 05:21:29;;;;;;;0.50;0.43;;;15.40;99.90;;;;;;4974981;28;20417;-64
2022/10/15 05:23:56;;;;;;;0.30;0.30;;;15.40;99.90;;;;;;4974610;28;20441;-64
2022/10/15 05:26:23;;;;;;;0.40;0.40;;;15.50;99.90;;;;;;4974955;28;20510;-64
2022/10/15 05:28:50;;;;;;;1.07;0.40;;;15.40;99.90;;;;;;4974969;28;20404;-65
2022/10/15 05:31:20;;;;;;;3.73;0.50;;;15.50;99.90;;;;;;4974558;28;20422;-65
2022/10/15 05:33:48;;;;;;;0.30;0.30;;;15.50;99.90;;;;;;4974282;28;20457;-65
2022/10/15 05:36:22;;;;;;;0.93;0.57;;;15.50;99.90;;;;;;4974291;28;20428;-64
2022/10/15 05:38:50;;;;;;;0.50;0.33;;;15.50;99.90;;;;;;4969777;28;20754;-63
2022/10/15 05:41:17;;;;;;;1.03;0.50;;;15.50;99.90;;;;;;4974825;28;20430;-64
2022/10/15 05:43:47;;;;;;;0.40;0.40;;;15.50;99.90;;;;;;4972470;28;20439;-64
2022/10/15 05:46:12;;;;;;;0.50;0.50;;;15.50;99.90;;;;;;4974001;28;20455;-65
2022/10/15 05:48:38;;;;;;;0.40;0.30;;;15.50;99.90;;;;;;4974437;28;20447;-65
2022/10/15 05:51:09;;;;;;;0.43;0.37;;;15.50;99.90;;;;;;4974347;28;20168;-65
2022/10/15 05:53:35;;;;;;;0.50;0.50;;;15.50;99.90;;;;;;4961457;28;20209;-64
2022/10/15 05:56:01;;;;;;;0.40;0.40;;;15.50;99.90;;;;;;4969776;28;20809;-64
2022/10/15 05:58:28;;;;;;;1.13;0.40;;;15.50;99.90;;;;;;4974395;28;20420;-66
2022/10/15 06:00:58;;;;;;;0.30;0.30;;;15.50;99.90;;;;;;4974276;28;20311;-64
2022/10/15 06:03:24;;;;;;;0.50;0.50;;;15.50;99.90;;;;;;4973466;28;20407;-66
2022/10/15 06:06:33;;;;;;;1.00;0.90;;;15.50;99.90;;;;;;4956533;28;20871;-66
2022/10/15 06:09:00;;;;;;;0.50;0.50;;;15.50;99.90;;;;;;4963312;28;20485;-65
2022/10/15 06:11:27;;;;;;;0.60;0.50;;;15.40;99.90;;;;;;4977968;28;20466;-64
2022/10/15 06:13:54;;;;;;;2.63;0.60;;;15.40;99.90;;;;;;4959830;28;20440;-64
2022/10/15 06:16:20;;;;;;;0.83;0.83;;;15.40;99.90;;;;;;4978073;28;20848;-67
2022/10/15 06:18:45;;;;;;;0.50;0.47;;;15.40;99.90;;;;;;4977695;28;20436;-74
2022/10/15 06:21:13;;;;;;;1.90;0.80;;;15.50;99.90;;;;;;4977881;28;20562;-63
2022/10/15 06:23:39;;;;;;;0.50;0.50;;;15.50;99.90;;;;;;4976270;28;20359;-64
2022/10/15 06:26:06;;;;;;;0.60;0.50;;;15.50;99.90;;;;;;4976332;28;20539;-61
2022/10/15 06:28:33;;;;;;;0.50;0.50;;;15.50;99.90;;;;;;4960417;28;20464;-62
2022/10/15 06:31:00;;;;;;;1.03;0.73;;;15.60;99.90;;;;;;4967416;28;20419;-63
2022/10/15 06:33:26;;;;;;;1.10;0.80;;;15.50;99.90;;;;;;4975516;28;20423;-63
2022/10/15 06:35:52;;;;;;;0.60;0.60;;;15.60;99.90;;;;;;4977337;28;20393;-62
2022/10/15 06:38:20;;;;;;;0.50;0.50;;;15.60;99.90;;;;;;4976668;28;20441;-62
2022/10/15 06:40:45;;;;;;;0.70;0.70;;;15.60;99.90;;;;;;4976914;28;20399;-62
2022/10/15 06:43:14;;;;;;;0.50;0.50;;;15.60;99.90;;;;;;4976052;28;20270;-62
2022/10/15 06:45:41;;;;;;;4.43;3.07;;;15.70;99.90;;;;;;4977332;28;20383;-63
2022/10/15 06:48:07;;;;;;;1.23;1.13;;;15.60;99.90;;;;;;4977550;28;20459;-63
2022/10/15 06:50:35;;;;;;;0.70;0.70;;;15.60;99.90;;;;;;4977074;28;20439;-62
2022/10/15 06:53:01;;;;;;;1.03;1.00;;;15.60;99.90;;;;;;4977250;28;20428;-63
2022/10/15 06:55:27;;;;;;;0.97;0.87;;;15.60;99.90;;;;;;4977318;28;21109;-62
2022/10/15 06:57:55;;;;;;;0.50;0.50;;;15.60;99.90;;;;;;4976944;28;20428;-62
2022/10/15 07:00:20;;;;;;;1.40;0.83;;;15.60;99.90;;;;;;4977452;28;20838;-62
2022/10/15 07:02:46;;;;;;;0.70;0.70;;;15.60;99.90;;;;;;4977235;28;20423;-61
2022/10/15 07:05:14;;;;;;;0.90;0.70;;;15.60;99.90;;;;;;4977147;28;20307;-61
2022/10/15 07:07:39;;;;;;;0.60;0.60;;;15.70;99.90;;;;;;4976181;28;20174;-62
2022/10/15 07:10:06;;;;;;;0.80;0.60;;;15.70;99.90;;;;;;4977320;28;20428;-62
2022/10/15 07:12:32;;;;;;;0.60;0.60;;;15.60;99.90;;;;;;4976757;28;20260;-62
2022/10/15 07:14:57;;;;;;;1.10;1.00;;;15.70;99.90;;;;;;4976961;28;20424;-62
2022/10/15 07:17:23;;;;;;;0.70;0.70;;;15.70;99.90;;;;;;4977371;28;20422;-61
2022/10/15 07:19:49;;;;;;;1.27;1.17;;;15.80;99.90;;;;;;4976352;28;20187;-63
2022/10/15 07:22:18;;;;;;;3.93;2.30;;;15.80;99.90;;;;;;4977209;28;20180;-60
2022/10/15 07:24:43;;;;;;;3.83;1.03;;;15.70;99.90;;;;;;4959364;28;20739;-61
2022/10/15 07:27:09;;;;;;;1.37;1.10;;;15.70;99.90;;;;;;4976358;28;20546;-61
2022/10/15 07:29:35;;;;;;;0.63;0.63;;;15.80;99.90;;;;;;4976063;28;20707;-63
2022/10/15 07:32:11;;;;;;;1.20;1.20;;;15.80;99.90;;;;;;4976631;28;20252;-61
2022/10/15 07:34:37;;;;;;;1.30;1.03;;;15.80;99.90;;;;;;4960221;28;20214;-62
2022/10/15 07:37:02;;;;;;;7.37;5.20;;;15.80;99.90;;;;;;4975685;28;20774;-61
2022/10/15 07:39:28;;;;;;;1.60;1.20;;;15.80;99.90;;;;;;4976923;28;20228;-62
2022/10/15 07:41:54;;;;;;;1.23;0.73;;;15.90;99.90;;;;;;4976132;28;20209;-62
2022/10/15 07:44:19;;;;;;;1.50;0.80;;;16.00;99.90;;;;;;4976240;28;20226;-63
2022/10/15 07:46:46;;;;;;;0.57;0.50;;;16.10;99.90;;;;;;4976791;28;20200;-62
2022/10/15 07:49:12;;;;;;;1.10;1.00;;;16.10;99.90;;;;;;4976864;28;20180;-63
2022/10/15 07:51:38;;;;;;;6.23;3.40;;;16.20;99.90;;;;;;4976804;28;20458;-62
2022/10/15 07:54:04;;;;;;;6.17;1.70;;;16.40;99.90;;;;;;4976084;28;20433;-63
2022/10/15 07:56:29;;;;;;;0.97;0.97;;;16.50;99.90;;;;;;4976202;28;20183;-62
2022/10/15 07:58:55;;;;;;;2.20;1.40;;;16.60;99.90;;;;;;4975326;28;20198;-63
2022/10/15 08:01:20;;;;;;;1.70;1.60;;;16.70;99.90;;;;;;4975136;28;20276;-63
2022/10/15 08:03:46;;;;;;;1.90;0.93;;;16.80;99.90;;;;;;4976135;28;20194;-63
2022/10/15 08:06:13;;;;;;;1.07;1.00;;;16.80;99.90;;;;;;4976184;28;20257;-62
2022/10/15 08:08:38;;;;;;;1.33;1.23;;;16.80;99.90;;;;;;4976418;28;20410;-62
2022/10/15 08:11:09;;;;;;;1.23;1.20;;;16.80;99.90;;;;;;4975876;28;20861;-63
2022/10/15 08:13:37;;;;;;;0.93;0.60;;;16.80;99.90;;;;;;4975764;28;20203;-61
2022/10/15 08:16:03;;;;;;;2.30;1.67;;;16.70;99.90;;;;;;4975607;28;20426;-63
2022/10/15 08:18:29;;;;;;;0.80;0.80;;;16.60;99.90;;;;;;4958235;28;20449;-62
2022/10/15 08:20:59;;;;;;;1.47;0.90;;;16.60;99.90;;;;;;4974954;28;20443;-62
2022/10/15 08:23:24;;;;;;;1.13;0.93;;;16.50;99.90;;;;;;4975288;28;20307;-62
2022/10/15 08:25:50;;;;;;;5.03;3.07;;;16.50;99.90;;;;;;4975610;28;20504;-62
2022/10/15 08:28:16;;;;;;;0.80;0.80;;;16.50;99.90;;;;;;4957913;28;20185;-62
2022/10/15 08:30:42;;;;;;;0.90;0.80;;;16.50;99.90;;;;;;4975811;28;20400;-61
2022/10/15 08:33:07;;;;;;;0.90;0.77;;;16.50;99.90;;;;;;4975381;28;20228;-62
2022/10/15 08:35:35;;;;;;;0.63;0.60;;;16.50;99.90;;;;;;4975802;28;20644;-63
2022/10/15 08:38:01;;;;;;;6.53;4.50;;;16.50;99.90;;;;;;4975848;28;20183;-63
2022/10/15 08:40:28;;;;;;;1.60;1.37;;;16.60;99.90;;;;;;4975835;28;20419;-62
2022/10/15 08:42:55;;;;;;;2.00;1.73;;;16.60;99.90;;;;;;4975428;28;20810;-63
2022/10/15 08:45:29;;;;;;;2.17;1.97;;;16.80;99.90;;;;;;4975150;28;20446;-62
2022/10/15 08:48:05;;;;;;;0.90;0.90;;;16.90;99.90;;;;;;4975615;28;20977;-63
2022/10/15 08:50:54;;;;;;;0.70;0.70;;;17.00;99.90;;;;;;4975546;28;20655;-62
2022/10/15 08:53:21;;;;;;;0.90;0.90;;;17.20;99.90;;;;;;4974994;28;20408;-63
2022/10/15 08:55:54;;;;;;;0.60;0.60;;;17.30;99.90;;;;;;4975260;28;20435;-62
2022/10/15 08:58:38;;;;;;;1.50;0.80;;;17.30;99.90;;;;;;4975404;28;20416;-62
2022/10/15 09:01:27;;;;;;;0.53;0.53;;;17.40;99.90;;;;;;4975121;28;20788;-63
2022/10/15 09:04:25;;;;;;;0.83;0.80;;;17.40;99.90;;;;;;4974916;28;20790;-62
2022/10/15 09:07:05;;;;;;;0.80;0.80;;;17.40;99.90;;;;;;4975099;28;20560;-63
2022/10/15 09:09:46;;;;;;;0.80;0.80;;;17.30;99.90;;;;;;4975418;28;20407;-62
2022/10/15 09:12:42;;;;;;;0.50;0.50;;;17.30;99.90;;;;;;4974861;28;20729;-62
2022/10/15 09:15:16;;;;;;;1.07;1.00;;;17.30;99.90;;;;;;4958322;28;20418;-62
2022/10/15 09:17:45;;;;;;;0.77;0.67;;;17.20;99.90;;;;;;4975196;28;20494;-62
2022/10/15 09:20:17;;;;;;;0.87;0.63;;;17.20;99.90;;;;;;4975070;28;20478;-62
2022/10/15 09:22:44;;;;;;;0.63;0.63;;;17.30;99.90;;;;;;4974517;28;20419;-62
2022/10/15 09:25:15;;;;;;;0.60;0.60;;;17.30;99.90;;;;;;4974881;28;20508;-62
2022/10/15 09:27:41;;;;;;;0.50;0.50;;;17.40;99.90;;;;;;4975144;28;20740;-62
2022/10/15 09:30:19;;;;;;;0.77;0.40;;;17.40;99.90;;;;;;4974378;28;20932;-62
2022/10/15 09:32:48;;;;;;;2.80;2.33;;;17.50;99.90;;;;;;4974054;28;20853;-62
2022/10/15 09:35:21;;;;;;;1.40;1.30;;;17.60;99.90;;;;;;4975127;28;20533;-62
2022/10/15 09:38:12;;;;;;;0.80;0.80;;;17.70;99.90;;;;;;4974875;28;20404;-62
2022/10/15 09:40:46;;;;;;;0.70;0.70;;;17.80;99.90;;;;;;4973609;28;20526;-61
2022/10/15 09:43:18;;;;;;;0.60;0.60;;;17.90;99.90;;;;;;4973941;28;20789;-61
2022/10/15 09:45:45;;;;;;;1.07;0.80;;;18.00;99.90;;;;;;4957976;28;20474;-63
2022/10/15 09:48:17;;;;;;;1.27;0.60;;;18.10;99.90;;;;;;4974562;28;20435;-63
2022/10/15 09:51:00;;;;;;;0.40;0.40;;;18.20;99.90;;;;;;4974750;28;20798;-63
2022/10/15 09:54:13;;;;;;;0.60;0.60;;;18.30;99.90;;;;;;4974297;28;20400;-63
2022/10/15 09:56:45;;;;;;;1.73;1.20;;;18.40;99.90;;;;;;4975412;28;20502;-62
2022/10/15 09:59:16;;;;;;;2.53;1.10;;;18.50;99.90;;;;;;4976485;28;20459;-63
2022/10/15 10:01:59;;;;;;;0.40;0.40;;;18.80;99.90;;;;;;4975696;28;20419;-62
2022/10/15 10:04:33;;;;;;;0.67;0.67;;;19.10;99.90;;;;;;4975613;28;20510;-62
2022/10/15 10:07:07;;;;;;;1.00;1.00;;;19.50;99.90;;;;;;4974461;28;20529;-62
2022/10/15 10:09:47;;;;;;;0.90;0.90;;;20.00;99.90;;;;;;4975983;28;20496;-63
2022/10/15 10:12:26;;;;;;;1.23;1.13;;;20.40;99.90;;;;;;4976095;28;20384;-62
2022/10/15 10:14:56;;;;;;;2.10;0.67;;;20.80;99.90;;;;;;4974358;28;20541;-62
2022/10/15 10:17:30;;;;;;;0.60;0.57;;;21.10;99.90;;;;;;4974521;28;20423;-62
2022/10/15 10:20:15;;;;;;;0.90;0.90;;;21.40;99.90;;;;;;4974500;28;20390;-63
2022/10/15 10:22:51;;;;;;;0.80;0.80;;;21.80;99.90;;;;;;4973535;28;20409;-63
2022/10/15 10:25:26;;;;;;;0.60;0.60;;;22.30;99.90;;;;;;4974256;28;20397;-62
2022/10/15 10:28:12;;;;;;;1.93;1.77;;;22.70;99.90;;;;;;4974381;28;20425;-64
2022/10/15 10:30:56;;;;;;;2.23;2.03;;;23.10;99.90;;;;;;4967270;28;20530;-63
2022/10/15 10:33:47;;;;;;;0.60;0.60;;;23.50;99.90;;;;;;4973849;28;20454;-64
2022/10/15 10:36:39;;;;;;;0.60;0.60;;;24.00;99.90;;;;;;4974041;28;20424;-63
2022/10/15 10:39:13;;;;;;;1.40;0.90;;;24.60;99.90;;;;;;4933266;29;20528;-63
2022/10/15 10:41:59;;;;;;;1.77;1.67;;;25.30;99.90;;;;;;4933732;29;20426;-64
2022/10/15 10:44:36;;;;;;;1.80;1.70;;;25.90;99.90;;;;;;4933363;29;20408;-65
2022/10/15 10:47:17;;;;;;;0.60;0.50;;;26.20;99.90;;;;;;4933473;29;21008;-62
2022/10/15 10:50:25;;;;;;;0.80;0.80;;;26.10;99.90;;;;;;4933715;29;20941;-63
2022/10/15 10:52:51;;;;;;;1.27;1.17;;;25.80;99.90;;;;;;4876762;29;20513;-63
2022/10/15 10:55:36;;;;;;;0.73;0.73;;;25.40;99.90;;;;;;4878530;29;20502;-63
2022/10/15 11:01:03;;;;;;;0.80;0.73;;;25.00;99.90;;;;;;4880918;29;20463;-63
2022/10/15 11:03:37;;;;;;;0.83;0.57;;;24.60;99.90;;;;;;4879858;29;20387;-62
2022/10/15 11:06:28;;;;;;;0.60;0.60;;;24.20;99.90;;;;;;4879814;29;20256;-64
2022/10/15 11:09:31;;;;;;;0.90;0.90;;;23.80;99.90;;;;;;4879800;29;20430;-62
2022/10/15 11:12:24;;;;;;;1.53;0.87;;;23.50;99.90;;;;;;4879871;29;20387;-63
2022/10/15 11:15:41;;;;;;;0.70;0.67;;;23.30;99.90;;;;;;4881126;29;20517;-62
2022/10/15 11:18:33;;;;;;;0.80;0.80;;;23.10;99.90;;;;;;4861440;29;20805;-63
2022/10/15 11:21:39;;;;;;;0.63;0.53;;;22.80;99.90;;;;;;4898181;29;20410;-63
2022/10/15 11:24:33;;;;;;;2.17;0.70;;;22.40;99.90;;;;;;4897437;29;20422;-62
2022/10/15 11:27:38;;;;;;;0.67;0.60;;;22.20;99.90;;;;;;4898387;29;20472;-62
2022/10/15 11:30:18;;;;;;;4.00;1.10;;;22.10;99.90;;;;;;4899915;29;20517;-63
2022/10/15 11:33:15;;;;;;;1.37;0.77;;;22.10;99.90;;;;;;4916963;29;20421;-63
2022/10/15 11:36:05;;;;;;;0.50;0.40;;;21.90;99.90;;;;;;4917051;29;20492;-63
2022/10/15 11:38:43;;;;;;;0.60;0.60;;;21.90;99.90;;;;;;4917164;29;20575;-64
2022/10/15 11:41:43;;;;;;;0.80;0.80;;;21.80;99.90;;;;;;4917361;29;20417;-63
2022/10/15 11:44:33;;;;;;;0.60;0.60;;;21.70;99.90;;;;;;4916505;29;20446;-65
2022/10/15 11:47:27;;;;;;;0.40;0.40;;;21.60;99.90;;;;;;4916792;29;20468;-63
2022/10/15 11:50:24;;;;;;;2.40;0.50;;;21.50;99.90;;;;;;4917240;29;21045;-65
2022/10/15 11:53:22;;;;;;;0.83;0.60;;;21.40;99.90;;;;;;4916699;29;20446;-64
2022/10/15 11:56:02;;;;;;;0.73;0.73;;;21.30;99.90;;;;;;4886232;29;20421;-63
2022/10/15 11:58:38;;;;;;;0.70;0.70;;;21.20;99.90;;;;;;4917133;29;20926;-64
2022/10/15 12:01:36;;;;;;;0.70;0.70;;;21.10;99.90;;;;;;4952889;28;20811;-64
2022/10/15 12:04:09;;;;;;;2.60;2.20;;;21.00;99.90;;;;;;4964519;28;20786;-64
2022/10/15 12:06:39;;;;;;;1.67;1.10;;;20.90;99.90;;;;;;4975876;28;20476;-64
2022/10/15 12:09:06;;;;;;;2.10;1.10;;;20.90;99.90;;;;;;4976220;28;20419;-63
2022/10/15 12:11:46;;;;;;;1.63;1.00;;;20.90;99.90;;;;;;4976225;28;20387;-63
2022/10/15 12:14:18;;;;;;;0.90;0.90;;;20.90;99.90;;;;;;4975711;28;20402;-63
2022/10/15 12:16:50;;;;;;;0.60;0.50;;;21.10;99.90;;;;;;4976101;28;20416;-64
2022/10/15 12:19:27;;;;;;;1.43;0.50;;;21.30;99.90;;;;;;4975840;28;20392;-63
2022/10/15 12:21:55;;;;;;;0.60;0.60;;;21.40;99.90;;;;;;4975641;28;20810;-63
2022/10/15 12:24:36;;;;;;;0.70;0.50;;;21.40;99.90;;;;;;4975564;28;20390;-64
2022/10/15 12:27:22;;;;;;;0.70;0.70;;;21.40;99.90;;;;;;4976002;28;20460;-62
2022/10/15 12:29:51;;;;;;;0.77;0.53;;;21.30;99.90;;;;;;4976021;28;20492;-63
2022/10/15 12:32:24;;;;;;;1.77;1.67;;;21.20;99.90;;;;;;4975552;28;20441;-62
2022/10/15 12:35:13;;;;;;;9.23;1.23;;;21.10;99.90;;;;;;4975930;28;20522;-62
2022/10/15 12:37:42;;;;;;;5.50;0.80;;;21.00;99.90;;;;;;4963178;28;20391;-62
2022/10/15 12:40:29;;;;;;;1.23;0.70;;;20.90;99.90;;;;;;4975348;28;20512;-62
2022/10/15 12:42:55;;;;;;;1.53;0.63;;;20.80;99.90;;;;;;4975041;28;20763;-63
2022/10/15 12:45:38;;;;;;;2.00;0.90;;;20.80;99.90;;;;;;4975391;28;20409;-63
2022/10/15 12:48:29;;;;;;;1.03;0.77;;;20.70;99.90;;;;;;4975371;28;20190;-63
2022/10/15 12:51:24;;;;;;;0.90;0.90;;;20.60;99.90;;;;;;4975534;28;20380;-63
2022/10/15 12:53:59;;;;;;;2.37;1.83;;;20.60;99.90;;;;;;4966230;28;20480;-63
2022/10/15 12:56:36;;;;;;;1.23;0.70;;;20.50;99.90;;;;;;4974229;28;20411;-63
2022/10/15 12:59:43;;;;;;;0.53;0.50;;;20.50;99.90;;;;;;4975435;28;20454;-63
2022/10/15 13:02:31;;;;;;;0.53;0.50;;;20.40;99.90;;;;;;4974852;28;20427;-62
2022/10/15 13:04:57;;;;;;;0.70;0.70;;;20.20;99.90;;;;;;4975223;28;20483;-63
2022/10/15 13:07:22;;;;;;;2.00;0.70;;;20.00;99.90;;;;;;4975254;28;20929;-64
2022/10/15 13:09:56;;;;;;;0.70;0.70;;;19.90;99.90;;;;;;4975729;28;20172;-63
2022/10/15 13:12:25;;;;;;;0.80;0.80;;;19.80;99.90;;;;;;4975085;28;20416;-62
2022/10/15 13:15:06;;;;;;;0.70;0.70;;;19.70;99.90;;;;;;4975249;28;20213;-64
2022/10/15 13:17:31;;;;;;;0.80;0.80;;;19.50;99.90;;;;;;4974082;28;20427;-63
2022/10/15 13:20:03;;;;;;;1.53;0.87;;;19.40;99.90;;;;;;4975123;28;20462;-63
2022/10/15 13:22:37;;;;;;;1.47;1.37;;;19.30;99.90;;;;;;4974782;28;20176;-62
2022/10/15 13:25:03;;;;;;;2.70;1.70;;;19.20;99.90;;;;;;4974491;28;20534;-62
2022/10/15 13:27:32;;;;;;;1.23;1.13;;;19.00;99.90;;;;;;4974785;28;20948;-63
2022/10/15 13:30:01;;;;;;;0.47;0.47;;;18.90;99.90;;;;;;4974937;28;20402;-63
2022/10/15 13:32:31;;;;;;;0.90;0.90;;;18.90;99.90;;;;;;4974163;28;20432;-62
2022/10/15 13:35:10;;;;;;;1.13;1.03;;;18.80;99.90;;;;;;4974911;28;20440;-62
2022/10/15 13:37:39;;;;;;;0.70;0.70;;;18.70;99.90;;;;;;4974780;28;20411;-61
2022/10/15 13:40:07;;;;;;;3.70;0.80;;;18.70;99.90;;;;;;4974837;28;20470;-63
2022/10/15 13:42:32;;;;;;;2.60;0.70;;;18.80;99.90;;;;;;4974436;28;20912;-62
2022/10/15 13:45:30;;;;;;;1.47;1.37;;;18.70;99.90;;;;;;4974334;28;20446;-60
2022/10/15 13:48:16;;;;;;;1.07;0.97;;;18.70;99.90;;;;;;4863218;29;20187;-64
2022/10/15 13:50:42;;;;;;;0.97;0.93;;;18.70;99.90;;;;;;4877099;29;20435;-63
2022/10/15 13:53:41;;;;;;;1.10;1.10;;;18.70;99.90;;;;;;4877063;29;20424;-64
2022/10/15 13:56:45;;;;;;;0.80;0.80;;;18.60;99.90;;;;;;4877368;29;20182;-62
2022/10/15 13:59:29;;;;;;;1.10;0.83;;;18.60;99.90;;;;;;4877502;29;20416;-63
2022/10/15 14:02:15;;;;;;;0.73;0.73;;;18.60;99.90;;;;;;4877152;29;20436;-63
2022/10/15 14:04:43;;;;;;;0.70;0.70;;;18.50;99.90;;;;;;4876818;29;20464;-63
2022/10/15 14:07:26;;;;;;;2.50;1.03;;;18.50;99.90;;;;;;4877234;29;20231;-62
2022/10/15 14:09:51;;;;;;;1.20;1.10;;;18.50;99.90;;;;;;4877297;29;20468;-62
2022/10/15 14:12:17;;;;;;;0.87;0.70;;;18.50;99.90;;;;;;4877387;29;20390;-62
2022/10/15 14:14:48;;;;;;;1.10;1.00;;;18.50;99.90;;;;;;4861395;29;20290;-65
2022/10/15 14:17:23;;;;;;;2.40;1.30;;;18.50;99.90;;;;;;4877045;29;20661;-64
2022/10/15 14:19:54;;;;;;;1.10;1.00;;;18.50;99.90;;;;;;4861713;29;20434;-62
2022/10/15 14:22:22;;;;;;;3.40;0.93;;;18.40;99.90;;;;;;4861816;29;20934;-63
2022/10/15 14:24:51;;;;;;;1.33;1.23;;;18.30;99.90;;;;;;4927996;28;20439;-63
2022/10/15 14:27:27;;;;;;;0.80;0.80;;;18.30;99.90;;;;;;4974193;28;20553;-63
2022/10/15 14:29:55;;;;;;;1.10;0.93;;;18.30;99.90;;;;;;4976856;28;20389;-63
2022/10/15 14:32:29;;;;;;;0.93;0.93;;;18.30;99.90;;;;;;4977736;28;20457;-63
2022/10/15 14:34:57;;;;;;;0.80;0.80;;;18.30;99.90;;;;;;4977720;28;20428;-63
2022/10/15 14:37:42;;;;;;;2.13;1.30;;;18.30;99.90;;;;;;4976338;28;20462;-64
2022/10/15 14:40:08;;;;;;;1.10;1.10;;;18.20;99.90;;;;;;4928187;28;20482;-63
2022/10/15 14:45:27;;;;;;;1.07;1.00;;;18.20;99.90;;;;;;4977655;28;20838;-63
2022/10/15 14:48:08;;;;;;;1.17;1.13;;;18.20;99.90;;;;;;4977483;28;20407;-64
2022/10/15 14:50:47;;;;;;;3.07;1.33;;;18.20;99.90;;;;;;4977800;28;20411;-64
2022/10/15 14:53:20;;;;;;;6.63;0.93;;;18.30;99.90;;;;;;4977184;28;20434;-63
2022/10/15 14:56:13;;;;;;;2.57;1.37;;;18.30;99.90;;;;;;4977364;28;20415;-64
2022/10/15 14:58:39;;;;;;;1.40;1.00;;;18.30;99.90;;;;;;4977953;28;20411;-62
2022/10/15 15:01:06;;;;;;;1.20;0.80;;;18.30;99.90;;;;;;4977518;28;20710;-63
2022/10/15 15:03:42;;;;;;;0.80;0.80;;;18.40;99.90;;;;;;4976934;28;20184;-63
2022/10/15 15:06:08;;;;;;;1.40;1.10;;;18.40;99.90;;;;;;4975579;28;20498;-63
2022/10/15 15:08:38;;;;;;;2.30;1.93;;;18.40;99.90;;;;;;4959674;28;20448;-62
2022/10/15 15:11:08;;;;;;;1.10;1.00;;;18.50;99.90;;;;;;4976791;28;20424;-62
2022/10/15 15:13:40;;;;;;;1.20;0.97;;;18.50;99.90;;;;;;4976839;28;20473;-62
2022/10/15 15:16:08;;;;;;;0.80;0.80;;;18.50;99.90;;;;;;4977241;28;20466;-62
2022/10/15 15:18:37;;;;;;;0.90;0.90;;;18.50;99.90;;;;;;4976947;28;20501;-62
2022/10/15 15:21:06;;;;;;;0.77;0.77;;;18.60;99.90;;;;;;4977131;28;20463;-62
2022/10/15 15:23:32;;;;;;;0.70;0.70;;;18.60;99.90;;;;;;4976647;28;20416;-61
2022/10/15 15:28:49;;;;;;;1.53;1.43;;;18.60;99.90;;;;;;4977497;28;20399;-61
2022/10/15 15:31:19;;;;;;;1.90;0.83;;;18.60;99.90;;;;;;4977036;28;20426;-63
2022/10/15 15:33:45;;;;;;;2.63;2.43;;;18.60;99.90;;;;;;4976297;28;20587;-62
2022/10/15 15:36:15;;;;;;;3.47;2.93;;;18.60;99.90;;;;;;4977479;28;20410;-62
2022/10/15 15:38:41;;;;;;;4.37;2.23;;;18.60;99.90;;;;;;4976883;28;20402;-64
2022/10/15 15:41:21;;;;;;;2.77;1.83;;;18.60;99.90;;;;;;4975922;28;20390;-64
2022/10/15 15:43:47;;;;;;;1.50;1.40;;;18.60;99.90;;;;;;4976405;28;20285;-63
2022/10/15 15:46:13;;;;;;;2.13;1.47;;;18.60;99.90;;;;;;4976786;28;20438;-64
2022/10/15 15:48:39;;;;;;;1.13;1.13;;;18.60;99.90;;;;;;4976707;28;20394;-63
2022/10/15 15:51:30;;;;;;;2.53;2.27;;;18.60;99.90;;;;;;4975315;28;20424;-63
2022/10/15 15:53:57;;;;;;;2.67;2.17;;;18.70;99.90;;;;;;4956797;29;20432;-63
2022/10/15 15:56:23;;;;;;;0.83;0.83;;;18.60;99.90;;;;;;4957210;29;20985;-63
2022/10/15 15:59:07;;;;;;;3.30;2.93;;;18.50;99.90;;;;;;4957245;29;20413;-63
2022/10/15 16:01:33;;;;;;;1.10;1.10;;;18.50;99.90;;;;;;4957153;29;20439;-64
2022/10/15 16:03:59;;;;;;;1.47;1.40;;;18.50;99.90;;;;;;4956952;28;20939;-63
2022/10/15 16:06:25;;;;;;;0.70;0.70;;;18.50;99.90;;;;;;4939133;28;20223;-63
2022/10/15 16:08:54;;;;;;;0.63;0.63;;;18.50;99.90;;;;;;4957184;29;20404;-63
2022/10/15 16:11:20;;;;;;;1.77;1.67;;;18.40;99.90;;;;;;4956760;28;20444;-64
2022/10/15 16:13:47;;;;;;;0.97;0.90;;;18.40;99.90;;;;;;4956356;29;20461;-63
2022/10/15 16:16:15;;;;;;;1.00;0.80;;;18.40;99.90;;;;;;4956978;28;20666;-64
2022/10/15 16:18:41;;;;;;;1.00;0.90;;;18.40;99.90;;;;;;4956882;29;20438;-63
2022/10/15 16:21:07;;;;;;;0.80;0.80;;;18.30;99.90;;;;;;4959301;28;20922;-63
2022/10/15 16:23:32;;;;;;;0.87;0.47;;;18.20;99.90;;;;;;4975401;28;20230;-63
2022/10/15 16:25:58;;;;;;;4.30;1.90;;;18.20;99.90;;;;;;4975807;28;20307;-64
2022/10/15 16:28:24;;;;;;;1.27;0.70;;;18.10;99.90;;;;;;4976474;28;20183;-62
2022/10/15 16:30:50;;;;;;;0.63;0.63;;;18.10;99.90;;;;;;4975645;28;20176;-63
2022/10/15 16:33:18;;;;;;;0.90;0.90;;;18.10;99.90;;;;;;4975626;28;20417;-64
2022/10/15 16:35:49;;;;;;;0.73;0.57;;;18.00;99.90;;;;;;4975513;28;20176;-63
2022/10/15 16:38:18;;;;;;;1.20;1.10;;;17.90;99.90;;;;;;4974785;28;20404;-63
2022/10/15 16:40:46;;;;;;;1.10;1.00;;;17.90;99.90;;;;;;4974447;28;20430;-63
2022/10/15 16:43:13;;;;;;;0.93;0.93;;;17.80;99.90;;;;;;4974067;28;20509;-64
2022/10/15 16:45:39;;;;;;;0.60;0.60;;;17.70;99.90;;;;;;4975554;28;20450;-63
2022/10/15 16:48:20;;;;;;;0.90;0.80;;;17.60;99.90;;;;;;4957450;28;20412;-63
2022/10/15 16:50:46;;;;;;;0.80;0.80;;;17.50;99.90;;;;;;4975130;28;20415;-63
2022/10/15 16:53:17;;;;;;;0.70;0.70;;;17.50;99.90;;;;;;4974173;28;20446;-63
2022/10/15 16:55:43;;;;;;;1.07;0.97;;;17.40;99.90;;;;;;4975537;28;20171;-63
2022/10/15 16:58:08;;;;;;;2.00;0.77;;;17.30;99.90;;;;;;4975270;28;20926;-63
2022/10/15 17:00:41;;;;;;;0.93;0.80;;;17.20;99.90;;;;;;4975434;28;20180;-63
2022/10/15 17:03:07;;;;;;;1.30;1.23;;;17.20;99.90;;;;;;4925549;28;20177;-63
2022/10/15 17:05:33;;;;;;;0.90;0.90;;;17.10;99.90;;;;;;4974555;28;20972;-63
2022/10/15 17:08:05;;;;;;;2.00;1.77;;;17.10;99.90;;;;;;4975423;28;20461;-63
2022/10/15 17:10:31;;;;;;;1.17;1.07;;;17.10;99.90;;;;;;4975329;28;20185;-64
2022/10/15 17:12:57;;;;;;;1.40;1.30;;;17.10;99.90;;;;;;4974893;28;20768;-64
2022/10/15 17:15:23;;;;;;;1.27;0.83;;;17.10;99.90;;;;;;4975006;28;20430;-63
2022/10/15 17:17:49;;;;;;;1.20;1.03;;;17.10;99.90;;;;;;4989594;28;20208;-64
2022/10/15 17:20:14;;;;;;;1.47;1.37;;;17.10;99.90;;;;;;4974899;28;20430;-62
2022/10/15 17:22:40;;;;;;;1.30;1.00;;;17.10;99.90;;;;;;4974808;28;20190;-63
2022/10/15 17:25:09;;;;;;;1.40;1.30;;;17.20;99.90;;;;;;4975221;28;20197;-63
2022/10/15 17:27:35;;;;;;;5.20;1.10;;;17.20;99.90;;;;;;4975097;28;20279;-63